Time;durP1;ratioP1;P1;durP2;ratioP2;P2;SDS_P1;SDS_P2;PMS_P1;PMS_P2;Temp;Humidity;BMP_temperature;BMP_pressure;BME280_temperature;BME280_humidity;BME280_pressure;Samples;Min_cycle;Max_cycle;Signal;HPM_P1;HPM_P2
2021/12/25 00:00:21;;;;;;;5.50;4.08;;;;;;;-1.97;88.13;98725.91;1636169;87;25675;-74
2021/12/25 00:02:50;;;;;;;5.90;4.05;;;;;;;-1.99;88.08;98735.17;1636221;87;26133;-74
2021/12/25 00:05:17;;;;;;;5.42;3.70;;;;;;;-2.03;87.98;98741.53;1636153;87;25794;-74
2021/12/25 00:07:44;;;;;;;4.05;3.65;;;;;;;-2.08;87.75;98745.50;1636252;87;25630;-74
2021/12/25 00:10:11;;;;;;;4.33;3.92;;;;;;;-2.13;87.68;98750.29;1636186;87;25639;-74
2021/12/25 00:12:38;;;;;;;5.37;3.45;;;;;;;-2.17;87.45;98753.18;1636258;87;25526;-74
2021/12/25 00:15:06;;;;;;;4.75;3.42;;;;;;;-2.21;87.24;98773.31;1636205;87;27426;-74
2021/12/25 00:17:33;;;;;;;5.08;3.33;;;;;;;-2.26;87.01;98776.73;1567891;91;25776;-74
2021/12/25 00:20:00;;;;;;;4.25;3.67;;;;;;;-2.30;86.82;98784.14;1540892;93;25377;-74
2021/12/25 00:22:28;;;;;;;5.87;3.50;;;;;;;-2.35;86.66;98797.36;1584010;90;26191;-74
2021/12/25 00:24:55;;;;;;;5.78;3.80;;;;;;;-2.41;86.80;98799.21;1622858;87;25639;-74
2021/12/25 00:27:41;;;;;;;6.15;3.67;;;;;;;-2.44;86.77;98812.42;1596772;89;27364;-74
2021/12/25 00:34:52;;;;;;;6.35;4.42;;;;;;;-2.52;87.10;98831.99;1619990;87;25648;-74
2021/12/25 00:37:18;;;;;;;4.85;4.25;;;;;;;-2.51;87.02;98835.70;1622542;88;25469;-74
2021/12/25 00:39:50;;;;;;;;;;;;;;;-2.52;87.19;98847.38;1602120;89;27995;-74
2021/12/25 00:42:17;;;;;;;6.40;4.30;;;;;;;-2.55;87.14;98851.85;1596656;89;25770;-74
2021/12/25 00:44:46;;;;;;;5.75;3.98;;;;;;;-2.57;87.08;98852.64;1622436;88;25485;-74
2021/12/25 00:47:13;;;;;;;6.85;4.87;;;;;;;-2.61;86.78;98867.43;1595238;89;25749;-74
2021/12/25 00:49:40;;;;;;;6.22;4.30;;;;;;;-2.64;86.72;98879.85;1680064;85;25410;-74
2021/12/25 00:52:08;;;;;;;6.58;4.10;;;;;;;-2.66;86.57;98881.97;1655205;85;27415;-74
2021/12/25 00:54:35;;;;;;;9.88;4.72;;;;;;;-2.70;86.50;98893.59;1714012;83;25420;-74
2021/12/25 00:57:02;;;;;;;7.15;4.72;;;;;;;-2.75;86.40;98898.06;1714718;83;25318;-74
2021/12/25 00:59:29;;;;;;;6.42;4.08;;;;;;;-2.79;86.42;98896.97;1676531;85;25601;-74
2021/12/25 01:01:58;;;;;;;5.60;3.77;;;;;;;-2.82;86.38;98908.34;1676935;85;25464;-74
2021/12/25 01:04:25;;;;;;;3.42;3.12;;;;;;;-2.85;86.18;98910.70;1677714;85;27377;-72
2021/12/25 01:06:53;;;;;;;7.08;3.15;;;;;;;-2.90;86.10;98919.39;1676860;85;25638;-73
2021/12/25 01:09:20;;;;;;;3.87;3.47;;;;;;;-2.93;86.07;98917.25;1676983;85;25575;-73
2021/12/25 01:11:50;;;;;;;7.20;3.30;;;;;;;-2.95;85.98;98929.15;1676945;85;25739;-74
2021/12/25 01:14:34;;;;;;;8.20;3.42;;;;;;;-2.98;85.91;98933.09;1677138;85;25470;-74
2021/12/25 01:17:15;;;;;;;4.10;3.33;;;;;;;-2.99;85.93;98938.66;1675746;83;27405;-74
2021/12/25 01:40:14;;;;;;;4.80;3.33;;;;;;;-3.22;85.72;99003.53;1676960;85;25467;-74
2021/12/25 01:47:50;;;;;;;6.25;3.35;;;;;;;-3.29;85.58;99010.05;1655284;85;25769;-74
2021/12/25 01:50:26;;;;;;;6.97;3.30;;;;;;;-3.34;85.42;99015.30;1677040;85;25731;-74
2021/12/25 01:52:55;;;;;;;5.05;3.30;;;;;;;-3.39;85.40;99026.11;1677035;85;25664;-73
2021/12/25 01:55:26;;;;;;;5.62;3.70;;;;;;;-3.45;85.23;99028.41;1676885;85;28040;-73
2021/12/25 01:57:56;;;;;;;5.37;3.47;;;;;;;-3.50;85.17;99036.28;1676498;84;25746;-74
2021/12/25 02:00:28;;;;;;;6.28;3.47;;;;;;;-3.56;84.95;99038.58;1676961;85;25466;-74
2021/12/25 02:02:56;;;;;;;4.03;2.58;;;;;;;-3.61;84.79;99046.45;1677044;85;26275;-73
2021/12/25 02:05:23;;;;;;;6.47;3.40;;;;;;;-3.66;84.64;99046.38;1676905;85;25470;-74
2021/12/25 02:07:50;;;;;;;7.15;2.72;;;;;;;-3.73;84.53;99058.98;1676951;85;28172;-74
2021/12/25 02:10:19;;;;;;;4.17;2.55;;;;;;;-3.79;84.50;99067.38;1676857;85;25705;-74
2021/12/25 02:12:47;;;;;;;5.10;2.77;;;;;;;-3.84;84.58;99066.78;1655390;85;25479;-73
2021/12/25 02:15:19;;;;;;;3.92;2.60;;;;;;;-3.86;84.63;99077.33;1676955;85;25629;-73
2021/12/25 02:20:30;;;;;;;5.12;3.25;;;;;;;-3.92;84.69;99087.54;1676998;85;28072;-74
2021/12/25 02:23:00;;;;;;;5.60;2.60;;;;;;;-3.97;84.58;99091.72;1676390;84;25737;-74
2021/12/25 02:25:23;;;;;;;4.90;2.92;;;;;;;-4.01;84.50;99101.69;1655231;85;25613;-74
2021/12/25 02:27:49;;;;;;;4.62;2.72;;;;;;;-4.03;84.27;99107.73;1655400;85;26496;-74
2021/12/25 02:30:16;;;;;;;4.65;2.42;;;;;;;-4.10;84.29;99113.69;1677082;85;25580;-74
2021/12/25 02:32:46;;;;;;;5.53;2.30;;;;;;;-4.10;84.29;99120.28;1677041;85;27334;-74
2021/12/25 02:35:14;;;;;;;5.92;2.42;;;;;;;-4.14;84.13;99126.08;1676898;85;25696;-73
2021/12/25 02:37:44;;;;;;;6.22;2.08;;;;;;;-4.19;83.85;99126.00;1676952;85;25400;-73
2021/12/25 02:40:14;;;;;;;5.67;2.15;;;;;;;-4.25;83.18;99130.11;1676959;85;26273;-73
2021/12/25 02:42:41;;;;;;;7.70;2.42;;;;;;;-4.34;83.20;99133.14;1677006;85;25593;-73
2021/12/25 02:45:15;;;;;;;6.90;2.50;;;;;;;-4.41;83.14;99144.88;1676964;85;27904;-73
2021/12/25 02:47:42;;;;;;;5.90;2.40;;;;;;;-4.50;82.94;99157.15;1676198;85;25958;-73
2021/12/25 02:50:06;;;;;;;4.30;2.22;;;;;;;-4.57;82.81;99163.09;1676596;83;25436;-73
2021/12/25 02:52:33;;;;;;;4.22;1.95;;;;;;;-4.65;82.88;99170.08;1677027;85;25707;-73
2021/12/25 02:54:59;;;;;;;7.55;2.37;;;;;;;-4.70;82.79;99169.98;1677025;85;25483;-73
2021/12/25 02:57:26;;;;;;;6.12;2.20;;;;;;;-4.77;82.86;99173.28;1677049;85;27324;-74
2021/12/25 02:59:52;;;;;;;5.70;2.72;;;;;;;-4.81;82.80;99169.53;1676898;85;25562;-73
2021/12/25 03:02:20;;;;;;;7.70;2.37;;;;;;;-4.88;82.66;99174.94;1677082;85;25461;-73
2021/12/25 03:04:49;;;;;;;7.37;2.67;;;;;;;-4.93;82.70;99178.80;1677043;85;26169;-73
2021/12/25 03:07:17;;;;;;;6.90;2.15;;;;;;;-4.98;82.72;99186.61;1719288;83;25575;-73
2021/12/25 03:09:44;;;;;;;7.05;2.47;;;;;;;-5.03;82.70;99193.11;1679393;85;27936;-73
2021/12/25 03:12:14;;;;;;;6.42;2.08;;;;;;;-5.07;82.78;99198.84;1719248;83;25627;-73
2021/12/25 03:15:03;;;;;;;6.75;2.27;;;;;;;-5.13;82.73;99202.39;1718877;83;25536;-73
2021/12/25 03:17:18;;;;;;;6.67;1.87;;;;;;;-5.17;82.78;99204.43;1677775;84;25654;-73
2021/12/25 03:19:44;;;;;;;5.17;2.30;;;;;;;-5.23;82.67;99203.50;1679040;85;25399;-73
2021/12/25 03:22:11;;;;;;;5.35;2.08;;;;;;;-5.30;82.63;99207.58;1688324;83;27793;-73
2021/12/25 03:24:37;;;;;;;6.58;2.10;;;;;;;-5.33;82.61;99212.52;1718627;83;25544;-73
2021/12/25 03:27:04;;;;;;;3.80;1.70;;;;;;;-5.37;82.66;99220.09;1718719;83;25454;-73
2021/12/25 03:29:35;;;;;;;2.62;1.42;;;;;;;-5.44;82.65;99222.05;1713680;83;25702;-73
2021/12/25 03:31:59;;;;;;;5.40;2.00;;;;;;;-5.46;82.59;99229.38;1713800;83;25425;-73
2021/12/25 03:34:26;;;;;;;3.40;1.70;;;;;;;-5.53;82.42;99232.66;1718710;83;27326;-73
2021/12/25 03:36:52;;;;;;;6.97;1.82;;;;;;;-5.55;82.61;99238.64;1718576;83;25630;-73
2021/12/25 03:39:19;;;;;;;4.58;2.08;;;;;;;-5.59;82.63;99238.83;1678983;84;25501;-73
2021/12/25 03:41:45;;;;;;;6.20;2.17;;;;;;;-5.62;82.62;99242.70;1652928;85;26365;-73
2021/12/25 03:44:12;;;;;;;4.35;1.80;;;;;;;-5.68;82.50;99252.34;1679038;84;25482;-73
2021/12/25 03:46:40;;;;;;;3.85;1.85;;;;;;;-5.71;82.36;99248.83;1676229;85;27106;-73
2021/12/25 03:49:14;;;;;;;2.83;1.55;;;;;;;-5.76;82.39;99250.03;1718555;83;25631;-73
2021/12/25 04:00:01;;;;;;;3.75;1.55;;;;;;;-5.91;82.36;99274.68;1643310;86;27345;-73
2021/12/25 04:02:31;;;;;;;6.72;1.87;;;;;;;-5.95;82.29;99274.33;1642107;87;25473;-73
2021/12/25 04:04:53;;;;;;;4.37;1.60;;;;;;;-6.00;82.26;99275.55;1639232;87;25556;-73
2021/12/25 04:09:59;;;;;;;3.95;1.80;;;;;;;-6.06;82.26;99293.06;1636493;87;25736;-73
2021/12/25 04:12:23;;;;;;;4.12;1.50;;;;;;;-6.10;82.27;99301.10;1639096;87;28053;-73
2021/12/25 04:14:50;;;;;;;5.30;1.60;;;;;;;-6.12;82.27;99299.21;1639568;87;25443;-73
2021/12/25 04:17:16;;;;;;;4.60;1.50;;;;;;;-6.14;82.32;99300.48;1639723;87;25689;-73
2021/12/25 04:19:42;;;;;;;4.80;1.77;;;;;;;-6.17;82.31;99306.98;1639636;87;25685;-73
2021/12/25 04:22:18;;;;;;;3.80;1.75;;;;;;;-6.20;82.28;99321.41;1639730;87;25608;-73
2021/12/25 04:24:41;;;;;;;6.62;2.15;;;;;;;-6.21;82.34;99316.36;1638152;87;27906;-73
2021/12/25 04:27:11;;;;;;;4.70;2.15;;;;;;;-6.24;82.29;99314.16;1639306;86;25565;-73
2021/12/25 04:29:44;;;;;;;5.72;1.98;;;;;;;-6.30;82.20;99326.89;1644735;84;25543;-73
2021/12/25 05:02:24;;;;;;;6.78;2.33;;;;;;;-6.79;82.20;99388.14;1668278;86;25569;-73
2021/12/25 05:04:46;;;;;;;4.30;2.45;;;;;;;-6.82;82.24;99384.63;1663324;84;27414;-73
2021/12/25 05:07:10;;;;;;;3.75;2.33;;;;;;;-6.85;82.20;99388.20;1656466;86;25622;-73
2021/12/25 05:09:37;;;;;;;8.30;2.70;;;;;;;-6.90;82.17;99392.79;1657385;86;25515;-73
2021/12/25 05:12:04;;;;;;;6.00;2.55;;;;;;;-6.92;82.19;99401.94;1657365;86;25633;-73
2021/12/25 05:14:31;;;;;;;5.25;2.50;;;;;;;-6.96;82.06;99411.56;1657407;86;25610;-73
2021/12/25 05:16:57;;;;;;;5.53;2.60;;;;;;;-7.00;82.07;99406.94;1657391;86;27364;-73
2021/12/25 05:19:25;;;;;;;8.38;3.10;;;;;;;-7.03;82.07;99413.45;1657308;86;25692;-73
2021/12/25 05:21:52;;;;;;;6.95;2.45;;;;;;;-7.08;82.01;99414.60;1657360;86;25417;-73
2021/12/25 05:24:19;;;;;;;6.42;3.05;;;;;;;-7.10;82.00;99419.77;1657357;86;25608;-73
2021/12/25 05:26:46;;;;;;;5.78;3.05;;;;;;;-7.13;82.03;99427.58;1657348;86;25650;-73
2021/12/25 05:29:21;;;;;;;6.08;2.83;;;;;;;-7.16;81.97;99423.55;1657398;86;27325;-73
2021/12/25 05:31:41;;;;;;;6.25;2.27;;;;;;;-7.20;81.94;99425.00;1655840;86;25765;-73
2021/12/25 05:34:08;;;;;;;5.33;2.52;;;;;;;-7.23;81.92;99428.57;1657484;86;25430;-73
2021/12/25 05:36:34;;;;;;;4.87;2.65;;;;;;;-7.26;81.94;99433.73;1657428;86;26303;-73
2021/12/25 05:39:01;;;;;;;9.35;3.00;;;;;;;-7.29;81.91;99429.41;1657453;86;25454;-73
2021/12/25 05:41:30;;;;;;;7.80;3.20;;;;;;;-7.32;81.91;99449.02;1657434;86;27339;-73
2021/12/25 05:43:58;;;;;;;;;;;;;;;-7.36;81.87;99452.58;1659781;86;25445;-73
2021/12/25 05:46:25;;;;;;;6.15;2.75;;;;;;;-7.38;81.84;99451.20;1657413;86;25414;-73
2021/12/25 05:48:51;;;;;;;9.15;3.30;;;;;;;-7.42;81.87;99453.94;1657363;86;25697;-73
2021/12/25 05:51:19;;;;;;;6.35;2.77;;;;;;;-7.42;81.94;99459.19;1657399;86;25668;-73
2021/12/25 05:53:46;;;;;;;4.22;2.47;;;;;;;-7.46;81.89;99457.50;1657365;86;27405;-73
2021/12/25 05:56:14;;;;;;;9.13;2.35;;;;;;;-7.47;81.85;99466.41;1657286;86;25715;-73
2021/12/25 05:58:41;;;;;;;6.85;2.90;;;;;;;-7.52;81.80;99468.34;1657346;86;25569;-73
2021/12/25 06:01:09;;;;;;;6.85;3.05;;;;;;;-7.54;81.82;99466.45;1633091;86;26100;-73
2021/12/25 06:03:36;;;;;;;5.72;3.08;;;;;;;-7.56;81.85;99471.11;1657365;86;25602;-73
2021/12/25 06:06:02;;;;;;;8.53;3.30;;;;;;;-7.60;81.87;99475.16;1639040;85;27410;-73
2021/12/25 06:08:29;;;;;;;6.70;3.17;;;;;;;-7.62;81.94;99481.13;1669542;85;25532;-73
2021/12/25 06:10:56;;;;;;;5.80;3.20;;;;;;;-7.63;81.93;99479.51;1637358;86;25451;-73
2021/12/25 06:13:24;;;;;;;8.25;3.55;;;;;;;-7.65;81.88;99474.19;1668148;86;25640;-73
2021/12/25 06:15:54;;;;;;;6.45;3.25;;;;;;;-7.68;81.91;99481.16;1668184;86;25695;-73
2021/12/25 06:18:20;;;;;;;8.85;3.77;;;;;;;-7.71;81.91;99483.20;1668118;86;27057;-73
2021/12/25 06:20:47;;;;;;;9.10;3.55;;;;;;;-7.74;81.93;99481.50;1637308;86;25713;-73
2021/12/25 06:23:14;;;;;;;8.35;3.70;;;;;;;-7.75;81.92;99491.17;1668166;86;25598;-73
2021/12/25 06:25:41;;;;;;;9.35;3.87;;;;;;;-7.78;81.92;99492.10;1668090;86;25645;-73
2021/12/25 06:28:08;;;;;;;8.33;3.77;;;;;;;-7.80;81.95;99500.70;1668178;86;25478;-73
2021/12/25 06:30:35;;;;;;;7.05;4.08;;;;;;;-7.80;81.87;99509.89;1668156;86;27349;-73
2021/12/25 06:33:02;;;;;;;11.38;4.60;;;;;;;-7.84;81.94;99510.81;1633911;86;25516;-73
2021/12/25 06:35:28;;;;;;;5.85;4.37;;;;;;;-7.84;81.93;99510.02;1668175;86;25616;-73
2021/12/25 06:37:55;;;;;;;6.87;4.37;;;;;;;-7.87;82.03;99515.16;1668132;86;25645;-73
2021/12/25 06:40:22;;;;;;;9.33;4.33;;;;;;;-7.90;81.92;99520.34;1668137;86;25409;-73
2021/12/25 06:42:49;;;;;;;14.23;4.87;;;;;;;-7.94;82.04;99516.50;1668130;86;27474;-73
2021/12/25 06:45:16;;;;;;;12.90;4.95;;;;;;;-7.94;82.12;99527.00;1637177;86;25590;-73
2021/12/25 06:47:43;;;;;;;11.22;4.70;;;;;;;-7.94;82.19;99532.25;1668125;86;25416;-73
2021/12/25 06:50:11;;;;;;;10.30;4.28;;;;;;;-7.96;82.25;99531.66;1668143;86;25754;-73
2021/12/25 06:52:38;;;;;;;9.65;4.40;;;;;;;-7.96;82.32;99526.92;1668265;86;25597;-73
2021/12/25 06:55:07;;;;;;;7.65;4.70;;;;;;;-7.96;82.39;99532.17;1668155;86;27361;-73
2021/12/25 06:57:39;;;;;;;8.20;4.62;;;;;;;-7.96;82.49;99532.17;1603526;88;25764;-73
2021/12/25 07:00:04;;;;;;;6.55;4.08;;;;;;;-7.97;82.43;99531.86;1603141;87;25504;-73
2021/12/25 07:02:31;;;;;;;7.28;3.95;;;;;;;-7.98;82.41;99536.83;1603721;89;25582;-73
2021/12/25 07:04:57;;;;;;;9.80;4.30;;;;;;;-8.00;82.42;99533.09;1603629;89;25490;-73
2021/12/25 07:07:24;;;;;;;8.55;4.37;;;;;;;-8.00;82.63;99537.03;1603681;89;27341;-73
2021/12/25 07:09:51;;;;;;;10.85;4.12;;;;;;;-7.99;82.71;99541.25;1581365;89;25565;-73
2021/12/25 07:12:19;;;;;;;12.75;4.67;;;;;;;-7.99;82.67;99549.13;1581455;89;25474;-73
2021/12/25 07:14:46;;;;;;;10.43;4.50;;;;;;;-7.99;82.68;99549.64;1603637;89;25600;-73
2021/12/25 07:17:12;;;;;;;9.68;4.87;;;;;;;-7.99;82.72;99552.27;1603673;89;25569;-73
2021/12/25 07:19:39;;;;;;;12.47;4.42;;;;;;;-7.98;82.64;99552.06;1603650;89;27364;-73
2021/12/25 07:22:05;;;;;;;9.78;4.85;;;;;;;-7.97;82.64;99552.34;1603528;89;25699;-73
2021/12/25 07:24:32;;;;;;;10.23;4.50;;;;;;;-7.97;82.67;99554.97;1603662;89;25565;-73
2021/12/25 07:27:03;;;;;;;10.48;4.40;;;;;;;-7.95;82.72;99558.70;1603610;89;25673;-73
2021/12/25 07:29:27;;;;;;;11.90;4.20;;;;;;;-7.95;82.77;99566.58;1659037;86;25583;-72
2021/12/25 07:31:54;;;;;;;9.18;4.53;;;;;;;-7.92;82.84;99566.17;1668168;86;27361;-73
2021/12/25 07:34:20;;;;;;;9.60;4.70;;;;;;;-7.91;82.80;99562.55;1637143;86;25691;-73
2021/12/25 07:36:47;;;;;;;9.55;4.42;;;;;;;-7.89;82.78;99568.39;1668123;86;25589;-73
2021/12/25 07:39:14;;;;;;;12.20;4.92;;;;;;;-7.87;82.76;99570.30;1668086;86;25687;-73
2021/12/25 07:41:40;;;;;;;12.37;4.83;;;;;;;-7.87;82.78;99576.86;1637459;85;25698;-73
2021/12/25 07:44:07;;;;;;;9.80;4.85;;;;;;;-7.85;82.74;99577.98;1668100;86;27378;-73
2021/12/25 07:46:34;;;;;;;9.93;4.90;;;;;;;-7.80;82.94;99580.79;1668039;86;25672;-71
2021/12/25 07:49:00;;;;;;;10.88;5.17;;;;;;;-7.75;82.98;99582.29;1668144;85;25496;-73
2021/12/25 07:51:27;;;;;;;7.08;4.80;;;;;;;-7.67;83.39;99586.02;1668212;86;25624;-72
2021/12/25 07:53:54;;;;;;;15.10;5.62;;;;;;;-7.54;83.43;99589.91;1668262;86;25586;-73
2021/12/25 07:56:26;;;;;;;9.93;5.47;;;;;;;-7.45;83.38;99589.69;1603598;89;27531;-73
2021/12/25 07:58:52;;;;;;;8.48;4.62;;;;;;;-7.32;83.33;99589.61;1611093;87;25795;-73
2021/12/25 08:01:19;;;;;;;14.80;5.58;;;;;;;-7.21;83.18;99586.85;1603722;89;25516;-73
2021/12/25 08:03:46;;;;;;;12.20;6.58;;;;;;;-7.08;83.54;99588.10;1603734;89;25724;-73
2021/12/25 08:06:13;;;;;;;9.93;5.55;;;;;;;-6.91;83.51;99595.48;1603414;89;25721;-73
2021/12/25 08:08:39;;;;;;;12.03;6.10;;;;;;;-6.78;83.04;99600.66;1602664;89;27421;-73
2021/12/25 08:11:06;;;;;;;12.05;5.80;;;;;;;-6.64;82.95;99602.20;1602407;89;25599;-73
2021/12/25 08:13:33;;;;;;;12.50;5.87;;;;;;;-6.45;83.10;99609.66;1602085;89;25548;-73
2021/12/25 08:15:59;;;;;;;13.62;6.65;;;;;;;-6.22;83.18;99614.32;1602327;89;26175;-73
2021/12/25 08:18:26;;;;;;;13.43;6.42;;;;;;;-5.98;82.21;99615.84;1602218;89;25672;-73
2021/12/25 08:20:53;;;;;;;11.03;6.20;;;;;;;-5.66;82.70;99620.46;1628545;86;27820;-73
2021/12/25 08:23:20;;;;;;;11.73;6.62;;;;;;;-5.31;83.24;99606.70;1657309;86;25473;-73
2021/12/25 08:25:47;;;;;;;13.18;6.40;;;;;;;-4.79;83.31;99612.03;1657423;86;25476;-73
2021/12/25 08:28:13;;;;;;;10.80;5.55;;;;;;;-4.31;83.08;99625.63;1633180;86;25568;-73
2021/12/25 08:30:40;;;;;;;10.80;6.20;;;;;;;-3.92;81.36;99629.17;1633253;86;25501;-73
2021/12/25 08:33:07;;;;;;;11.45;6.30;;;;;;;-3.53;81.60;99628.18;1657442;86;27370;-73
2021/12/25 08:35:34;;;;;;;9.68;5.67;;;;;;;-3.00;82.03;99632.42;1657350;86;25711;-73
2021/12/25 08:38:04;;;;;;;13.00;5.85;;;;;;;-2.57;80.68;99632.92;1663382;86;25428;-73
2021/12/25 08:40:31;;;;;;;11.93;5.78;;;;;;;-2.28;78.93;99636.36;1661110;86;26217;-73
2021/12/25 08:43:01;;;;;;;13.62;7.08;;;;;;;-1.91;79.16;99642.48;1657436;86;25488;-73
2021/12/25 08:45:42;;;;;;;13.98;6.85;;;;;;;-1.49;79.25;99639.91;1657134;86;27401;-73
2021/12/25 08:48:21;;;;;;;9.28;5.60;;;;;;;-1.28;77.34;99641.75;1657388;86;25597;-73
2021/12/25 08:50:53;;;;;;;10.55;5.62;;;;;;;-0.89;76.80;99644.87;1657411;86;25586;-74
2021/12/25 08:53:23;;;;;;;10.45;5.67;;;;;;;-0.68;75.19;99645.38;1657462;86;25815;-74
2021/12/25 08:55:52;;;;;;;9.95;5.37;;;;;;;-0.33;74.18;99644.63;1657446;86;25617;-74
2021/12/25 08:58:19;;;;;;;9.43;5.47;;;;;;;-0.10;74.20;99647.47;1657502;86;27369;-74
2021/12/25 09:00:47;;;;;;;10.38;6.40;;;;;;;0.03;71.69;99649.70;1657274;86;25666;-74
2021/12/25 09:03:14;;;;;;;9.18;5.20;;;;;;;0.07;74.03;99644.66;1653830;86;25790;-74
2021/12/25 09:05:40;;;;;;;12.05;5.80;;;;;;;0.27;71.70;99650.13;1657361;86;25652;-74
2021/12/25 09:08:07;;;;;;;15.08;5.97;;;;;;;0.36;73.37;99656.59;1657544;86;25577;-74
2021/12/25 09:10:35;;;;;;;13.60;6.12;;;;;;;0.57;73.37;99663.36;1657394;86;27360;-74
2021/12/25 09:13:03;;;;;;;10.95;6.25;;;;;;;0.73;72.61;99659.73;1653854;86;25436;-74
2021/12/25 09:15:30;;;;;;;13.70;6.60;;;;;;;1.03;73.27;99668.10;1657358;86;25698;-74
2021/12/25 09:17:57;;;;;;;10.50;6.42;;;;;;;1.22;71.79;99665.77;1657350;86;26312;-74
2021/12/25 09:20:24;;;;;;;9.60;6.53;;;;;;;1.26;68.49;99666.83;1657385;86;25660;-74
2021/12/25 09:22:51;;;;;;;12.63;5.90;;;;;;;1.27;68.52;99669.23;1657359;86;27348;-74
2021/12/25 09:25:19;;;;;;;13.35;6.45;;;;;;;1.33;71.51;99671.40;1657326;86;25476;-74
2021/12/25 09:27:46;;;;;;;12.00;7.15;;;;;;;1.46;67.19;99672.75;1657362;86;25662;-75
2021/12/25 09:30:13;;;;;;;13.00;7.20;;;;;;;1.65;71.12;99667.20;1633050;86;25590;-75
2021/12/25 09:32:40;;;;;;;14.33;6.53;;;;;;;1.94;68.57;99663.20;1657459;86;25562;-76
2021/12/25 09:35:07;;;;;;;12.13;7.20;;;;;;;2.28;72.61;99670.66;1633399;86;27280;-76
2021/12/25 09:37:34;;;;;;;15.32;7.30;;;;;;;3.18;70.56;99669.86;1633033;86;25617;-76
2021/12/25 09:40:03;;;;;;;15.68;7.65;;;;;;;3.89;69.63;99665.15;1657381;86;25492;-76
2021/12/25 09:42:30;;;;;;;13.35;6.72;;;;;;;4.29;66.40;99671.22;1657432;86;25637;-77
2021/12/25 09:44:57;;;;;;;11.45;6.25;;;;;;;4.68;66.61;99672.98;1657381;86;25433;-77
2021/12/25 09:47:25;;;;;;;18.80;6.87;;;;;;;4.92;63.10;99684.23;1657361;86;26869;-76
2021/12/25 09:49:51;;;;;;;11.28;5.70;;;;;;;5.08;62.70;99679.52;1657307;86;25441;-76
2021/12/25 09:52:20;;;;;;;10.38;6.12;;;;;;;5.41;62.92;99687.94;1633193;86;25462;-77
2021/12/25 09:54:47;;;;;;;8.78;5.97;;;;;;;5.63;59.15;99685.20;1657315;86;25685;-76
2021/12/25 09:57:14;;;;;;;11.70;6.50;;;;;;;5.57;59.92;99676.99;1657350;86;25685;-76
2021/12/25 09:59:41;;;;;;;15.90;7.70;;;;;;;5.67;58.46;99679.52;1657367;86;27415;-76
2021/12/25 10:02:15;;;;;;;12.37;6.37;;;;;;;5.84;60.65;99669.61;1657274;86;25348;-76
2021/12/25 10:04:49;;;;;;;13.58;6.92;;;;;;;6.01;57.21;99677.69;1657355;86;25583;-74
2021/12/25 10:07:27;;;;;;;13.00;6.60;;;;;;;5.85;56.35;99681.92;1658436;86;25681;-74
2021/12/25 10:10:06;;;;;;;11.93;7.35;;;;;;;6.10;58.70;99679.97;1657891;86;25586;-75
2021/12/25 10:12:41;;;;;;;13.45;6.72;;;;;;;6.81;59.15;99681.94;1657916;86;27366;-75
2021/12/25 10:15:11;;;;;;;12.98;7.60;;;;;;;7.55;56.77;99678.80;1657620;86;25639;-75
2021/12/25 10:17:51;;;;;;;13.25;7.22;;;;;;;7.80;57.75;99678.22;1656602;85;25506;-75
2021/12/25 10:20:23;;;;;;;13.80;7.10;;;;;;;8.07;55.05;99681.09;1657822;86;26416;-75
2021/12/25 10:23:21;;;;;;;15.43;7.50;;;;;;;8.07;55.35;99686.47;1657085;86;25463;-75
2021/12/25 10:25:51;;;;;;;16.23;7.78;;;;;;;8.10;54.48;99684.52;1656880;85;27387;-74
2021/12/25 10:28:23;;;;;;;14.07;7.30;;;;;;;7.96;52.82;99680.55;1657723;86;25624;-74
2021/12/25 10:31:01;;;;;;;14.85;8.40;;;;;;;8.41;53.51;99677.80;1657844;86;25680;-73
2021/12/25 10:33:39;;;;;;;17.17;8.40;;;;;;;8.86;53.32;99685.02;1657770;86;26201;-73
2021/12/25 10:36:11;;;;;;;13.80;7.70;;;;;;;9.31;52.69;99689.67;1652376;85;25626;-73
2021/12/25 10:38:38;;;;;;;14.13;7.97;;;;;;;9.47;50.59;99685.95;1657839;86;27376;-73
2021/12/25 10:41:19;;;;;;;16.93;8.68;;;;;;;9.41;49.04;99688.55;1657685;86;25599;-73
2021/12/25 10:43:44;;;;;;;17.17;8.85;;;;;;;9.29;48.44;99690.52;1657635;85;25843;-73
2021/12/25 10:46:11;;;;;;;16.95;8.45;;;;;;;9.29;47.41;99679.72;1657803;86;25609;-73
2021/12/25 10:48:37;;;;;;;15.65;8.43;;;;;;;9.19;44.80;99686.77;1657850;86;25594;-73
2021/12/25 10:51:05;;;;;;;14.80;9.08;;;;;;;9.14;48.57;99697.70;1657814;86;27407;-73
2021/12/25 10:53:42;;;;;;;18.12;8.80;;;;;;;9.63;49.43;99696.29;1634667;86;25449;-74
2021/12/25 10:56:12;;;;;;;18.12;9.55;;;;;;;10.24;49.46;99694.91;1657522;86;25688;-73
2021/12/25 10:58:41;;;;;;;16.25;9.43;;;;;;;10.54;48.65;99695.00;1657493;86;25645;-74
2021/12/25 11:01:12;;;;;;;16.17;8.98;;;;;;;11.00;48.76;99690.70;1657913;86;25608;-74
2021/12/25 11:03:45;;;;;;;14.53;9.23;;;;;;;11.62;47.95;99695.17;1657838;86;27517;-74
2021/12/25 11:06:18;;;;;;;16.55;9.10;;;;;;;11.68;46.46;99696.55;1657787;86;25485;-74
2021/12/25 11:08:47;;;;;;;14.00;8.68;;;;;;;11.69;46.27;99696.79;1662658;86;25539;-74
2021/12/25 11:11:16;;;;;;;;;;;;;;;11.40;43.92;99701.13;1660690;86;25751;-74
2021/12/25 11:13:53;;;;;;;16.47;10.47;;;;;;;11.27;40.17;99698.11;1658570;86;25473;-75
2021/12/25 11:16:34;;;;;;;15.43;9.65;;;;;;;11.03;43.46;99696.26;1658320;86;28799;-73
2021/12/25 11:19:08;;;;;;;17.45;9.10;;;;;;;11.15;44.54;99696.91;1658207;86;25626;-74
2021/12/25 11:21:49;;;;;;;18.02;9.50;;;;;;;11.02;43.41;99702.00;1658173;86;25480;-74
2021/12/25 11:24:21;;;;;;;17.15;9.00;;;;;;;11.03;43.45;99691.38;1658317;86;25568;-74
2021/12/25 11:26:53;;;;;;;15.95;9.20;;;;;;;11.51;44.12;99690.70;1658507;86;25485;-74
2021/12/25 11:29:24;;;;;;;16.50;9.38;;;;;;;11.40;43.79;99692.44;1658439;86;27553;-75
2021/12/25 11:31:55;;;;;;;15.05;10.00;;;;;;;11.06;43.37;99688.60;1658350;86;25578;-75
2021/12/25 11:34:27;;;;;;;20.05;9.85;;;;;;;10.70;43.91;99682.55;1658400;86;25500;-75
2021/12/25 11:36:57;;;;;;;15.10;10.13;;;;;;;10.51;43.95;99692.97;1654524;86;25733;-75
2021/12/25 11:39:26;;;;;;;19.52;11.28;;;;;;;10.05;43.28;99701.44;1658465;86;25680;-75
2021/12/25 11:41:59;;;;;;;17.40;9.58;;;;;;;9.65;43.64;99698.11;1658503;86;27326;-75
2021/12/25 11:44:44;;;;;;;16.62;10.23;;;;;;;9.41;42.57;99698.56;1635553;86;25315;-75
2021/12/25 11:47:39;;;;;;;18.37;10.20;;;;;;;8.98;43.63;99692.75;1658400;86;25577;-75
2021/12/25 11:50:17;;;;;;;18.40;10.05;;;;;;;8.83;42.83;99701.27;1658395;86;25653;-75
2021/12/25 11:53:09;;;;;;;15.58;8.88;;;;;;;8.11;43.21;99701.72;1658420;86;25655;-75
2021/12/25 11:58:37;;;;;;;16.52;9.55;;;;;;;7.28;40.92;99699.27;1658363;86;25797;-75
2021/12/25 12:00:52;;;;;;;14.53;9.10;;;;;;;6.66;42.64;99699.14;1653919;86;25609;-76
2021/12/25 12:03:52;;;;;;;19.67;9.83;;;;;;;6.28;43.77;99696.59;1658604;86;25747;-76
2021/12/25 12:06:13;;;;;;;16.52;9.58;;;;;;;6.30;45.77;99706.48;1656895;86;25613;-75
2021/12/25 12:09:07;;;;;;;13.75;8.13;;;;;;;5.74;44.59;99701.97;1657745;86;27473;-75
2021/12/25 12:11:31;;;;;;;19.10;10.08;;;;;;;5.22;44.12;99696.48;1656908;86;25474;-74
2021/12/25 12:14:23;;;;;;;19.82;10.75;;;;;;;5.09;45.87;99691.81;1657443;86;25651;-74
2021/12/25 12:17:04;;;;;;;19.98;10.40;;;;;;;5.12;44.39;99698.74;1634377;86;26095;-76
2021/12/25 12:19:38;;;;;;;21.15;11.43;;;;;;;4.82;45.51;99701.25;1648568;86;25436;-75
2021/12/25 12:22:34;;;;;;;19.90;10.82;;;;;;;4.34;45.87;99687.23;1634203;86;28076;-75
2021/12/25 12:25:24;;;;;;;16.80;9.90;;;;;;;4.36;48.22;99692.31;1656208;84;25662;-74
2021/12/25 12:28:01;;;;;;;17.27;9.60;;;;;;;4.84;48.32;99695.85;1656555;84;25649;-75
2021/12/25 12:30:39;;;;;;;14.98;9.40;;;;;;;5.01;47.52;99701.30;1657437;86;25617;-74
2021/12/25 12:33:21;;;;;;;16.00;9.55;;;;;;;4.89;47.89;99704.91;1657507;86;25680;-75
2021/12/25 12:35:51;;;;;;;19.82;9.55;;;;;;;4.95;48.53;99711.27;1657437;86;27992;-75
2021/12/25 12:38:39;;;;;;;17.98;9.60;;;;;;;5.25;47.69;99717.37;1656672;86;25671;-75
2021/12/25 12:41:42;;;;;;;16.62;9.23;;;;;;;5.02;46.79;99721.65;1657448;86;25463;-75
2021/12/25 12:44:14;;;;;;;17.37;9.63;;;;;;;4.90;47.59;99731.42;1656312;86;26423;-75
2021/12/25 12:46:55;;;;;;;14.35;8.85;;;;;;;5.02;47.81;99725.15;1655071;86;25430;-75
2021/12/25 12:49:45;;;;;;;15.65;9.60;;;;;;;4.81;46.93;99719.19;1657424;86;27343;-75
2021/12/25 12:52:22;;;;;;;17.75;10.35;;;;;;;4.57;46.83;99717.83;1657491;86;25600;-75
2021/12/25 12:54:56;;;;;;;18.75;9.70;;;;;;;4.19;47.21;99727.53;1657541;86;25409;-74
2021/12/25 12:57:39;;;;;;;18.02;9.83;;;;;;;4.34;48.40;99726.06;1590051;90;25655;-74
2021/12/25 13:00:27;;;;;;;19.02;9.90;;;;;;;4.09;46.47;99725.20;1590234;90;25533;-74